Latest Weather Observations for Cobar Airport

IDN60801

Issued at 8:02 pm EST Wednesday 27 May 2015 (issued every 30 minutes, with the page automatically refreshed every 10 minutes)

About weather observations | Map of weather stations | Latest weather observations for NSW | Other Formats
Station Details ID: 048237 Name: COBAR AIRPORT AWS Lat: -31.54 Lon: 145.80 Height: 218.0 m
Data from the previous 72 hours. | See also: Recent months for locations in New South Wales
Date/Time
EST
Temp
°C
App
Temp
°C
Dew
Point
Rel
Hum
%
Delta-T
°C
Wind Press
QNH
hPa
Press
MSL
hPa
Rain
since 9 am
mm
Dir
 
Spd
km/h
Gust
km/h
Spd
kts
Gust
kts
27/08:00pm 15.0 14.5 13.7 92 0.7 NE 9 11 5 6 1023.0 1022.9 3.4
27/07:30pm 15.0 14.7 13.4 90 0.9 NE 7 9 4 5 1022.9 1022.8 3.4
27/07:00pm 15.1 14.5 13.6 91 0.8 ENE 9 11 5 6 1022.5 1022.4 3.4
27/06:30pm 15.2 15.1 13.9 92 0.7 ENE 7 11 4 6 1022.4 1022.3 3.4
27/06:00pm 15.4 14.7 14.3 93 0.6 ENE 11 15 6 8 1022.2 1022.1 3.4
27/05:30pm 15.7 15.2 13.9 89 1.0 ENE 9 13 5 7 1022.2 1022.1 3.4
27/05:00pm 15.9 15.7 13.6 86 1.3 NE 7 9 4 5 1022.3 1022.2 3.4
27/04:30pm 16.0 16.0 13.5 85 1.4 ENE 6 9 3 5 1022.3 1022.2 3.4
27/04:00pm 16.1 16.5 13.6 85 1.4 SSE 4 7 2 4 1022.4 1022.3 3.4
27/03:30pm 16.2 16.1 13.3 83 1.6 S 6 9 3 5 1022.3 1022.2 3.4
27/03:00pm 16.2 16.4 13.1 82 1.7 SSW 4 11 2 6 1022.4 1022.3 3.4
27/02:30pm 16.5 17.8 14.2 86 1.3 CALM 0 0 0 0 1022.6 1022.5 3.4
27/02:00pm 15.6 16.5 14.0 90 0.9 SSE 2 7 1 4 1022.8 1022.7 3.4
27/01:30pm 14.8 15.0 14.3 97 0.3 ENE 6 7 3 4 1022.6 1022.5 3.4
27/01:00pm 14.4 13.9 13.9 97 0.3 NE 9 13 5 7 1022.9 1022.8 3.2
27/12:30pm 14.5 14.5 13.7 95 0.5 ENE 6 7 3 4 1023.8 1023.8 2.2
27/12:00pm 14.2 14.1 13.2 94 0.6 E 6 7 3 4 1024.2 1024.2 1.8
27/11:30am 14.2 15.0 12.6 90 0.9 CALM 0 0 0 0 1024.9 1024.8 1.0
27/11:00am 14.1 13.7 12.3 89 1.0 E 6 7 3 4 1025.1 1025.0 0.8
27/10:30am 13.7 13.0 12.1 90 0.9 E 7 9 4 5 1025.3 1025.2 0.8
27/10:00am 13.7 14.1 11.2 85 1.3 CALM 0 0 0 0 1025.4 1025.3 0.4
27/09:30am 13.7 13.2 10.9 83 1.5 NNE 4 7 2 4 1025.3 1025.2 0.0
27/09:00am 13.8 12.3 10.6 81 1.7 NNE 9 11 5 6 1025.0 1024.9 0.0
27/08:30am 13.9 11.5 10.1 78 2.0 NE 13 17 7 9 1024.5 1024.4 0.0
27/08:00am 13.6 11.5 9.8 78 2.0 NE 11 13 6 7 1024.2 1024.2 0.0
27/07:30am 13.4 10.9 9.8 79 1.9 NE 13 17 7 9 1023.9 1023.9 0.0
27/07:00am 13.3 10.7 9.5 78 2.0 NE 13 17 7 9 1023.7 1023.7 0.0
27/06:30am 13.3 10.4 9.5 78 2.0 NE 15 20 8 11 1023.5 1023.5 0.0
27/06:00am 13.3 10.7 9.4 77 2.0 NE 13 19 7 10 1023.2 1023.1 0.0
27/05:30am 13.2 10.6 9.5 78 1.9 NE 13 19 7 10 1023.2 1023.1 0.0
27/05:00am 13.2 10.3 9.5 78 1.9 NE 15 19 8 10 1023.0 1022.9 0.0
27/04:30am 13.0 10.5 9.6 80 1.8 NE 13 19 7 10 1023.3 1023.3 0.0
27/04:00am 12.8 10.3 9.6 81 1.6 NE 13 17 7 9 1023.4 1023.4 0.0
27/03:30am 12.5 10.4 9.7 83 1.4 NE 11 15 6 8 1023.4 1023.4 0.0
27/03:00am 12.7 10.6 9.7 82 1.5 NE 11 15 6 8 1023.7 1023.7 0.0
27/02:30am 13.0 10.5 9.8 81 1.7 NE 13 17 7 9 1023.8 1023.8 0.0
27/02:00am 13.0 11.0 10.2 83 1.5 NE 11 15 6 8 1024.0 1024.0 0.0
27/01:30am 13.0 11.0 10.0 82 1.6 NE 11 15 6 8 1024.2 1024.2 0.0
27/01:00am 13.2 11.2 10.0 81 1.7 NE 11 17 6 9 1024.6 1024.5 0.0
27/12:30am 13.5 11.5 10.1 80 1.8 ENE 11 17 6 9 1025.0 1024.9 0.0
27/12:00am 13.6 11.6 10.2 80 1.8 ENE 11 17 6 9 1025.2 1025.1 0.0
 
Date/Time
EST
Temp
°C
App
Temp
°C
Dew
Point
Rel
Hum
%
Delta-T
°C
Wind Press
QNH
hPa
Press
MSL
hPa
Rain
since 9 am
mm
Dir
 
Spd
km/h
Gust
km/h
Spd
kts
Gust
kts
26/11:30pm 13.4 11.7 10.0 80 1.8 ENE 9 13 5 7 1025.5 1025.4 0.0
26/11:00pm 13.5 11.5 10.3 81 1.7 ENE 11 13 6 7 1025.5 1025.4 0.0
26/10:30pm 12.9 11.2 9.9 82 1.6 ENE 9 13 5 7 1025.7 1025.6 0.0
26/10:00pm 12.3 10.5 9.3 82 1.5 ENE 9 11 5 6 1025.8 1025.7 0.0
26/09:30pm 13.1 11.2 9.2 77 2.0 ENE 9 11 5 6 1025.9 1025.8 0.0
26/09:00pm 13.5 11.6 9.2 75 2.2 ENE 9 11 5 6 1026.0 1025.9 0.0
26/08:30pm 14.4 12.2 9.4 72 2.6 ENE 11 13 6 7 1025.7 1025.6 0.0
26/08:00pm 14.2 12.7 9.2 72 2.6 ENE 7 9 4 5 1025.7 1025.6 0.0
26/07:30pm 15.4 13.2 9.3 67 3.2 E 11 13 6 7 1025.3 1025.2 0.0
26/07:00pm 14.9 12.7 9.3 69 2.9 E 11 11 6 6 1025.4 1025.3 0.0
26/06:30pm 15.7 14.1 8.7 63 3.6 E 7 9 4 5 1025.2 1025.1 0.0
26/06:00pm 17.0 15.4 8.9 59 4.2 ENE 7 9 4 5 1024.9 1024.8 0.0
26/05:30pm 17.5 15.5 8.6 56 4.6 E 9 11 5 6 1024.7 1024.6 0.0
26/05:00pm 18.2 16.2 8.7 54 4.9 ENE 9 11 5 6 1025.0 1024.9 0.0
26/04:30pm 18.7 16.7 8.7 52 5.3 ENE 9 11 5 6 1025.0 1024.9 0.0
26/04:00pm 19.0 17.4 8.6 51 5.4 E 7 11 4 6 1025.0 1024.9 0.0
26/03:30pm 19.0 16.5 8.1 49 5.7 NNE 11 15 6 8 1025.3 1025.2 0.0
26/03:00pm 19.1 17.0 8.4 50 5.6 NNE 9 13 5 7 1025.5 1025.4 0.0
26/02:30pm 18.9 16.9 8.6 51 5.4 NNE 9 17 5 9 1025.4 1025.3 0.0
26/02:00pm 18.7 16.7 8.7 52 5.2 NE 9 15 5 8 1025.8 1025.7 0.0
26/01:30pm 18.2 15.9 9.0 55 4.8 NE 11 17 6 9 1026.0 1025.9 0.0
26/01:00pm 17.7 15.8 9.1 57 4.5 NE 9 15 5 8 1026.6 1026.5 0.0
26/12:30pm 17.3 15.4 9.0 58 4.3 NE 9 13 5 7 1027.2 1027.2 0.0
26/12:00pm 17.5 15.3 9.4 59 4.3 NE 11 13 6 7 1027.5 1027.5 0.0
26/11:30am 17.2 15.3 8.9 58 4.3 NE 9 13 5 7 1028.0 1028.0 0.0
26/11:00am 16.6 14.8 9.3 62 3.8 NE 9 13 5 7 1028.5 1028.5 0.0
26/10:30am 15.8 13.6 9.2 65 3.4 NE 11 15 6 8 1028.9 1028.9 0.0
26/10:00am 15.1 12.9 9.2 68 3.0 NE 11 15 6 8 1029.0 1029.0 0.0
26/09:30am 14.7 12.1 9.3 70 2.8 NE 13 17 7 9 1028.7 1028.7 0.0
26/09:00am 14.2 11.6 9.2 72 2.6 NE 13 19 7 10 1028.9 1028.9 0.0
26/08:30am 13.0 11.2 9.6 80 1.8 NE 9 11 5 6 1028.8 1028.8 0.0
26/08:00am 12.3 10.9 9.5 83 1.4 ENE 7 9 4 5 1028.8 1028.8 0.0
26/07:30am 11.4 9.8 8.8 84 1.3 NE 7 11 4 6 1028.6 1028.6 0.0
26/07:00am 11.5 9.6 8.9 84 1.3 ENE 9 15 5 8 1028.1 1028.1 0.0
26/06:30am 11.7 9.7 8.6 81 1.6 NE 9 11 5 6 1028.0 1028.0 0.0
26/06:00am 12.3 10.3 8.6 78 1.8 ENE 9 11 5 6 1027.7 1027.7 0.0
26/05:30am 12.5 10.5 8.8 78 1.9 ENE 9 13 5 7 1027.5 1027.5 0.0
26/05:00am 12.3 10.7 8.6 78 1.8 NE 7 9 4 5 1027.7 1027.7 0.0
26/04:30am 12.3 10.2 8.4 77 2.0 NE 9 11 5 6 1027.5 1027.5 0.0
26/04:00am 12.4 9.9 8.3 76 2.0 ENE 11 13 6 7 1027.2 1027.2 0.0
26/03:30am 12.4 10.3 8.1 75 2.1 ENE 9 13 5 7 1027.3 1027.3 0.0
26/03:00am 12.5 10.3 8.0 74 2.2 ENE 9 13 5 7 1027.7 1027.7 0.0
26/02:30am 13.0 10.5 8.1 72 2.5 NE 11 15 6 8 1027.9 1027.9 0.0
26/02:00am 13.3 10.8 8.4 72 2.5 NE 11 13 6 7 1028.0 1028.0 0.0
26/01:30am 12.8 10.8 8.5 75 2.2 NE 9 15 5 8 1028.1 1028.1 0.0
26/01:00am 12.5 10.1 8.6 77 2.0 NE 11 13 6 7 1028.4 1028.4 0.0
26/12:30am 12.2 10.5 8.3 77 1.9 ENE 7 9 4 5 1028.7 1028.7 0.0
26/12:00am 12.1 10.1 8.6 79 1.7 ENE 9 11 5 6 1028.8 1028.8 0.0
 
Date/Time
EST
Temp
°C
App
Temp
°C
Dew
Point
Rel
Hum
%
Delta-T
°C
Wind Press
QNH
hPa
Press
MSL
hPa
Rain
since 9 am
mm
Dir
 
Spd
km/h
Gust
km/h
Spd
kts
Gust
kts
25/11:30pm 13.0 10.9 8.3 73 2.4 ENE 9 13 5 7 1029.5 1029.4 0.0
25/11:00pm 12.5 10.9 8.0 74 2.2 ENE 6 7 3 4 1029.3 1029.2 0.0
25/10:30pm 13.4 11.2 8.0 70 2.7 ENE 9 11 5 6 1029.5 1029.4 0.0
25/10:00pm 13.9 11.4 8.1 68 2.9 ENE 11 13 6 7 1029.6 1029.5 0.0
25/09:30pm 14.4 11.9 8.1 66 3.2 ENE 11 13 6 7 1029.5 1029.4 0.0
25/09:00pm 15.1 12.2 8.1 63 3.5 E 13 17 7 9 1029.2 1029.1 0.0
25/08:30pm 15.3 12.8 8.1 62 3.7 E 11 13 6 7 1028.8 1028.8 0.0
25/08:00pm 15.4 13.3 8.2 62 3.6 ENE 9 11 5 6 1028.7 1028.7 0.0
25/07:30pm 16.0 13.5 8.0 59 4.1 E 11 13 6 7 1028.6 1028.6 0.0
25/07:00pm 16.7 14.2 8.1 57 4.4 ESE 11 13 6 7 1028.3 1028.3 0.0
25/06:30pm 17.0 14.5 8.4 57 4.4 ESE 11 15 6 8 1028.2 1028.2 0.0
25/06:00pm 17.0 14.9 8.4 57 4.4 ENE 9 9 5 5 1028.1 1028.1 0.0
25/05:30pm 17.5 15.9 8.9 57 4.5 ESE 7 9 4 5 1028.2 1028.2 0.0
25/05:00pm 18.9 17.2 7.7 48 5.7 SE 6 7 3 4 1028.1 1028.1 0.0
25/04:30pm 19.5 17.5 6.9 44 6.4 SE 7 9 4 5 1027.9 1027.9 0.0
25/04:00pm 19.9 19.1 6.6 42 6.7 CALM 0 0 0 0 1027.9 1027.9 0.0
25/03:30pm 19.9 17.9 7.0 43 6.6 N 7 11 4 6 1027.7 1027.7 0.0
25/03:00pm 20.3 18.4 6.6 41 6.9 SSW 6 9 3 5 1027.4 1027.4 0.0
25/02:30pm 20.7 18.9 7.0 41 7.1 NNE 6 11 3 6 1027.4 1027.4 0.0
25/02:00pm 20.1 18.1 6.4 41 6.9 ENE 6 9 3 5 1028.1 1028.1 0.0
25/01:30pm 20.3 18.3 7.3 43 6.7 NE 7 15 4 8 1028.7 1028.7 0.0
25/01:00pm 19.6 16.7 6.7 43 6.5 NNE 11 15 6 8 1029.2 1029.1 0.0
25/12:30pm 19.7 16.2 7.1 44 6.5 N 15 22 8 12 1029.5 1029.4 0.0
25/12:00pm 18.7 15.4 6.5 45 6.1 NE 13 17 7 9 1030.2 1030.1 0.0
25/11:30am 18.3 15.8 6.5 46 5.9 NE 9 13 5 7 1031.2 1031.2 0.0
25/11:00am 17.6 15.0 6.2 47 5.6 NE 9 15 5 8 1031.3 1031.3 0.0
25/10:30am 16.9 13.7 6.7 51 5.1 NNE 13 17 7 9 1031.5 1031.5 0.0
25/10:00am 15.2 11.4 5.7 53 4.6 NE 15 20 8 11 1031.5 1031.5 0.0
25/09:30am 14.2 10.1 6.1 58 3.9 NE 17 22 9 12 1031.0 1030.9 0.0
25/09:00am 12.4 8.6 6.0 65 3.0 NE 15 19 8 10 1031.3 1031.3 0.0
25/08:30am 9.9 7.3 6.1 77 1.8 NE 9 11 5 6 1031.2 1031.2 0.0
25/08:00am 8.8 6.5 5.9 82 1.3 ENE 7 9 4 5 1031.1 1031.1 0.0
25/07:30am 8.1 5.7 5.4 83 1.2 ENE 7 9 4 5 1030.7 1030.6 0.0
25/07:00am 8.2 5.1 5.5 83 1.2 NE 11 13 6 7 1030.5 1030.4 0.0
25/06:30am 8.5 6.2 5.6 82 1.3 ENE 7 9 4 5 1030.7 1030.6 0.0
25/06:00am 8.7 6.3 5.3 79 1.5 NE 7 7 4 4 1030.3 1030.2 0.0
25/05:30am 9.4 6.3 5.6 77 1.8 ENE 11 15 6 8 1029.7 1029.6 0.0
25/05:00am 9.4 6.9 5.0 74 2.0 E 7 9 4 5 1029.6 1029.5 0.0
25/04:30am 9.6 6.9 5.4 75 1.9 ENE 9 11 5 6 1029.3 1029.2 0.0
25/04:00am 10.6 7.5 5.4 70 2.4 NE 11 15 6 8 1029.3 1029.2 0.0
25/03:30am 10.7 7.6 5.5 70 2.4 ENE 11 15 6 8 1029.4 1029.3 0.0
25/03:00am 10.9 7.8 5.7 70 2.4 ENE 11 17 6 9 1029.4 1029.3 0.0
25/02:30am 11.0 7.9 5.7 70 2.5 ENE 11 17 6 9 1029.4 1029.3 0.0
25/02:00am 11.3 8.3 5.8 69 2.6 ENE 11 15 6 8 1029.8 1029.7 0.0
25/01:30am 11.6 8.2 5.9 68 2.7 ENE 13 17 7 9 1029.6 1029.5 0.0
25/01:00am 12.0 8.6 6.1 67 2.8 ENE 13 17 7 9 1029.8 1029.7 0.0
25/12:30am 12.2 8.9 6.3 67 2.8 ENE 13 17 7 9 1030.0 1029.9 0.0
25/12:00am 12.4 8.7 6.2 66 2.9 ENE 15 19 8 10 1030.1 1030.0 0.0
 
Date/Time
EST
Temp
°C
App
Temp
°C
Dew
Point
Rel
Hum
%
Delta-T
°C
Wind Press
QNH
hPa
Press
MSL
hPa
Rain
since 9 am
mm
Dir
 
Spd
km/h
Gust
km/h
Spd
kts
Gust
kts
24/11:30pm 12.2 9.0 6.7 69 2.7 ENE 13 15 7 8 1030.3 1030.2 0.0
24/11:00pm 12.2 9.0 6.9 70 2.5 ENE 13 17 7 9 1030.3 1030.2 0.0
24/10:30pm 12.8 9.6 6.8 67 2.9 ENE 13 19 7 10 1030.4 1030.3 0.0
24/10:00pm 13.4 10.3 7.2 66 3.0 E 13 17 7 9 1030.7 1030.6 0.0
24/09:30pm 13.7 11.0 7.2 65 3.2 E 11 15 6 8 1030.8 1030.7 0.0
24/09:00pm 13.7 10.7 7.5 66 3.1 E 13 17 7 9 1030.5 1030.4 0.0
24/08:30pm 12.8 10.6 7.9 72 2.4 E 9 13 5 7 1030.5 1030.4 0.0

Other Formats:

Comma delimited format used in spreadsheet applications
http://www.bom.gov.au/fwo/IDN60801/IDN60801.94710.axf

JavaScript Object Notation format (JSON) in row-major order
http://www.bom.gov.au/fwo/IDN60801/IDN60801.94710.json